createdAt,value
2022-10-22T00:02:20.718Z,8.80
2022-10-22T00:07:23.015Z,9.30
2022-10-22T00:12:25.854Z,9.60
2022-10-22T00:17:30.064Z,8.30
2022-10-22T00:22:32.046Z,8.40
2022-10-22T00:27:33.841Z,8.60
2022-10-22T00:32:35.638Z,9.30
2022-10-22T00:37:37.665Z,8.20
2022-10-22T00:42:39.903Z,9.40
2022-10-22T00:47:49.135Z,10.50
2022-10-22T00:52:51.643Z,9.20
2022-10-22T00:57:55.963Z,9.10
2022-10-22T01:02:58.454Z,10.00
2022-10-22T01:08:00.461Z,9.00
2022-10-22T01:13:21.060Z,9.60
2022-10-22T01:19:05.930Z,9.90
2022-10-22T01:24:20.673Z,9.80
2022-10-22T01:29:30.496Z,9.50
2022-10-22T01:34:33.701Z,10.20
2022-10-22T01:39:38.691Z,10.10
2022-10-22T01:44:41.521Z,9.30
2022-10-22T01:50:08.596Z,9.30
2022-10-22T01:55:38.569Z,10.20
2022-10-22T02:00:47.519Z,10.40
2022-10-22T02:05:54.202Z,10.80
2022-10-22T02:10:58.655Z,9.70
2022-10-22T02:16:03.209Z,9.50
2022-10-22T02:26:54.677Z,8.80
2022-10-22T02:31:58.881Z,10.30
2022-10-22T02:37:03.578Z,9.90
2022-10-22T02:42:05.811Z,9.90
2022-10-22T02:47:07.749Z,10.50
2022-10-22T02:52:09.598Z,10.00
2022-10-22T03:02:26.631Z,10.40
2022-10-22T03:07:28.609Z,10.50
2022-10-22T03:12:30.726Z,10.40
2022-10-22T03:17:32.656Z,11.50
2022-10-22T03:22:36.625Z,10.70
2022-10-22T03:27:40.229Z,9.50
2022-10-22T03:32:42.280Z,10.20
2022-10-22T03:37:44.150Z,11.20
2022-10-22T03:42:46.183Z,10.60
2022-10-22T03:47:48.178Z,9.20
2022-10-22T03:52:50.178Z,10.10
2022-10-22T03:58:04.320Z,10.40
2022-10-22T04:03:10.789Z,10.30
2022-10-22T04:08:12.553Z,11.60
2022-10-22T04:13:14.448Z,11.20
2022-10-22T04:18:16.366Z,11.10
2022-10-22T04:23:18.217Z,11.50
2022-10-22T04:28:20.158Z,11.50
2022-10-22T04:33:22.136Z,11.60
2022-10-22T04:38:24.050Z,9.90
2022-10-22T04:43:26.055Z,11.10
2022-10-22T04:48:27.839Z,11.70
2022-10-22T04:53:29.693Z,10.10
2022-10-22T04:58:31.710Z,9.60
2022-10-22T05:03:33.665Z,11.30
2022-10-22T05:08:36.051Z,11.50
2022-10-22T05:13:38.469Z,10.90
2022-10-22T05:18:42.823Z,10.70
2022-10-22T05:23:46.295Z,11.10
2022-10-22T05:28:50.261Z,10.00
2022-10-22T05:33:52.249Z,10.10
2022-10-22T05:38:54.513Z,10.30
2022-10-22T05:44:00.526Z,10.10
2022-10-22T05:49:04.998Z,10.50
2022-10-22T05:54:29.289Z,10.60
2022-10-22T05:59:39.297Z,10.90
2022-10-22T06:04:41.050Z,11.70
2022-10-22T06:09:43.116Z,11.80
2022-10-22T06:14:45.239Z,11.30
2022-10-22T06:19:47.127Z,11.20
2022-10-22T06:24:58.500Z,11.00
2022-10-22T06:30:00.719Z,11.00
2022-10-22T06:35:02.588Z,12.10
2022-10-22T06:40:05.055Z,11.40
2022-10-22T06:45:08.099Z,10.70
2022-10-22T06:50:10.168Z,9.70
2022-10-22T06:55:32.321Z,9.30
2022-10-22T07:05:41.972Z,9.80
2022-10-22T07:10:43.780Z,10.60
2022-10-22T07:15:45.684Z,13.30
2022-10-22T07:20:50.751Z,13.10
2022-10-22T07:25:53.096Z,14.40
2022-10-22T07:30:55.098Z,16.90
2022-10-22T07:36:02.278Z,17.00
2022-10-22T07:41:04.883Z,13.30
2022-10-22T07:46:08.727Z,13.80
2022-10-22T07:51:10.679Z,12.10
2022-10-22T07:56:12.575Z,11.90
2022-10-22T08:01:14.599Z,11.90
2022-10-22T08:06:17.929Z,11.10
2022-10-22T08:11:19.825Z,12.60
2022-10-22T08:16:22.980Z,12.00
2022-10-22T08:21:25.199Z,14.00
2022-10-22T08:26:27.133Z,12.90
2022-10-22T08:31:29.310Z,12.70
2022-10-22T08:36:31.910Z,14.60
2022-10-22T08:41:46.610Z,11.90
2022-10-22T08:47:20.053Z,12.00
2022-10-22T08:52:49.302Z,12.80
2022-10-22T08:58:27.300Z,13.70
2022-10-22T09:04:28.405Z,15.10
2022-10-22T09:09:35.972Z,12.80
2022-10-22T09:14:46.868Z,12.30
2022-10-22T09:19:49.050Z,12.10
2022-10-22T09:25:08.298Z,12.20
2022-10-22T09:30:27.056Z,12.80
2022-10-22T09:35:33.403Z,14.10
2022-10-22T09:40:48.677Z,13.30
2022-10-22T09:45:58.275Z,14.00
2022-10-22T09:51:18.225Z,12.90
2022-10-22T09:56:35.502Z,14.10
2022-10-22T10:01:40.968Z,12.70
2022-10-22T10:06:44.562Z,13.30
2022-10-22T10:12:03.668Z,15.00
2022-10-22T10:17:18.581Z,14.50
2022-10-22T10:22:45.011Z,13.30
2022-10-22T10:27:55.829Z,17.60
2022-10-22T10:33:39.136Z,15.20
2022-10-22T10:39:20.314Z,15.40
2022-10-22T10:44:48.035Z,17.20
2022-10-22T10:49:55.029Z,14.80
2022-10-22T10:55:25.362Z,16.20
2022-10-22T11:00:36.033Z,14.80
2022-10-22T11:05:53.297Z,17.70
2022-10-22T11:10:58.828Z,14.80
2022-10-22T11:16:26.666Z,14.50
2022-10-22T11:21:55.978Z,14.50
2022-10-22T11:27:07.013Z,14.20
2022-10-22T11:32:18.870Z,14.80
2022-10-22T11:37:24.822Z,15.80
2022-10-22T11:42:57.312Z,17.20
2022-10-22T11:48:12.652Z,16.20
2022-10-22T11:53:14.441Z,15.40
2022-10-22T11:58:28.477Z,16.70
2022-10-22T12:03:33.300Z,22.50
2022-10-22T12:08:46.889Z,17.00
2022-10-22T12:14:01.046Z,16.50
2022-10-22T12:19:12.928Z,18.50
2022-10-22T12:24:19.313Z,17.30
2022-10-22T12:29:30.275Z,16.80
2022-10-22T12:34:51.414Z,16.40
2022-10-22T12:39:53.182Z,14.30
2022-10-22T12:44:56.558Z,15.40
2022-10-22T12:49:58.966Z,15.50
2022-10-22T12:55:01.028Z,16.60
2022-10-22T13:00:04.187Z,17.60
2022-10-22T13:05:30.979Z,17.00
2022-10-22T13:10:35.333Z,17.30
2022-10-22T13:15:39.572Z,19.70
2022-10-22T13:21:01.890Z,17.60
2022-10-22T13:26:14.096Z,19.90
2022-10-22T13:31:19.557Z,23.20
2022-10-22T13:36:22.690Z,19.50
2022-10-22T13:41:32.203Z,19.30
2022-10-22T13:46:40.598Z,22.00
2022-10-22T13:51:43.229Z,22.40
2022-10-22T13:56:45.782Z,24.60
2022-10-22T14:01:48.167Z,26.60
2022-10-22T14:06:50.329Z,25.60
2022-10-22T14:11:52.266Z,23.50
2022-10-22T14:16:54.464Z,26.60
2022-10-22T14:21:56.540Z,35.30
2022-10-22T14:26:58.965Z,56.70
2022-10-22T14:32:02.417Z,56.70
2022-10-22T14:37:04.209Z,35.20
2022-10-22T14:42:06.019Z,28.50
2022-10-22T14:47:08.242Z,30.10
2022-10-22T14:52:30.265Z,26.60
2022-10-22T14:57:45.304Z,34.60
2022-10-22T15:02:48.116Z,35.60
2022-10-22T15:07:49.959Z,34.50
2022-10-22T15:12:52.190Z,37.90
2022-10-22T15:17:54.268Z,44.60
2022-10-22T15:22:56.789Z,38.20
2022-10-22T15:28:04.778Z,35.60
2022-10-22T15:33:11.705Z,31.50
2022-10-22T15:38:14.076Z,40.90
2022-10-22T15:43:15.894Z,38.10
2022-10-22T15:48:21.537Z,41.40
2022-10-22T15:53:23.414Z,35.90
2022-10-22T15:58:25.393Z,41.60
2022-10-22T16:03:27.413Z,40.60
2022-10-22T16:08:29.864Z,38.90
2022-10-22T16:13:31.927Z,34.90
2022-10-22T16:18:34.037Z,43.10
2022-10-22T16:23:36.521Z,42.30
2022-10-22T16:28:38.953Z,41.70
2022-10-22T16:33:47.895Z,35.50
2022-10-22T16:38:52.086Z,47.10
2022-10-22T16:43:55.495Z,53.00
2022-10-22T16:48:57.901Z,43.80
2022-10-22T16:53:59.929Z,66.70
2022-10-22T16:59:01.949Z,41.90
2022-10-22T17:04:04.151Z,42.20
2022-10-22T17:09:06.315Z,41.40
2022-10-22T17:14:08.603Z,42.00
2022-10-22T17:19:15.358Z,38.80
2022-10-22T17:24:18.390Z,34.00
2022-10-22T17:29:29.969Z,40.20
2022-10-22T17:34:33.400Z,39.30
2022-10-22T17:39:36.592Z,39.30
2022-10-22T17:44:38.507Z,41.90
2022-10-22T17:49:41.233Z,36.70
2022-10-22T17:54:43.593Z,38.10
2022-10-22T17:59:45.499Z,40.90
2022-10-22T18:04:52.231Z,36.20
2022-10-22T18:09:54.170Z,40.50
2022-10-22T18:15:06.360Z,40.80
2022-10-22T18:20:21.693Z,40.10
2022-10-22T18:25:24.092Z,48.80
2022-10-22T18:30:26.225Z,45.50
2022-10-22T18:35:32.207Z,50.00
2022-10-22T18:40:36.014Z,40.80
2022-10-22T18:45:45.998Z,38.70
2022-10-22T18:50:47.825Z,34.40
2022-10-22T18:55:49.617Z,18.10
2022-10-22T19:00:52.038Z,39.30
2022-10-22T19:06:07.484Z,37.80
2022-10-22T19:11:15.427Z,37.70
2022-10-22T19:16:24.106Z,36.20
2022-10-22T19:21:26.361Z,34.80
2022-10-22T19:26:30.538Z,33.90
2022-10-22T19:31:32.672Z,34.50
2022-10-22T19:36:55.238Z,34.70
2022-10-22T19:42:12.406Z,34.70
2022-10-22T19:47:15.690Z,41.90
2022-10-22T19:52:17.666Z,41.50
2022-10-22T19:57:19.567Z,35.70
2022-10-22T20:02:23.162Z,35.70
2022-10-22T20:07:25.238Z,38.10
2022-10-22T20:12:27.133Z,36.70
2022-10-22T20:17:29.070Z,38.10
2022-10-22T20:22:31.266Z,37.70
2022-10-22T20:27:33.044Z,36.30
2022-10-22T20:32:39.288Z,34.40
2022-10-22T20:37:41.710Z,35.90
2022-10-22T20:42:44.241Z,36.70
2022-10-22T20:47:51.622Z,39.50
2022-10-22T20:53:00.519Z,34.60
2022-10-22T20:58:02.441Z,32.40
2022-10-22T21:03:04.734Z,36.80
2022-10-22T21:08:06.940Z,33.50
2022-10-22T21:13:14.068Z,32.40
2022-10-22T21:18:16.397Z,33.10
2022-10-22T21:23:18.286Z,31.50
2022-10-22T21:28:20.235Z,31.80
2022-10-22T21:33:22.157Z,28.20
2022-10-22T21:38:25.382Z,25.90
2022-10-22T21:43:27.322Z,25.80
2022-10-22T21:48:29.207Z,26.80
2022-10-22T21:53:31.009Z,24.80
2022-10-22T21:58:36.310Z,28.70
2022-10-22T22:03:38.491Z,25.80
2022-10-22T22:08:40.576Z,26.30
2022-10-22T22:13:42.994Z,27.30
2022-10-22T22:18:44.827Z,26.50
2022-10-22T22:23:49.124Z,27.40
2022-10-22T22:28:51.185Z,34.30
2022-10-22T22:34:02.344Z,34.30
2022-10-22T22:39:06.797Z,39.60
2022-10-22T22:44:08.717Z,38.30
2022-10-22T22:49:12.991Z,34.70
2022-10-22T22:54:14.862Z,34.10
2022-10-22T22:59:16.776Z,33.60
2022-10-22T23:04:23.624Z,35.00
2022-10-22T23:09:28.428Z,31.60
2022-10-22T23:14:33.144Z,35.70
2022-10-22T23:19:35.155Z,37.10
2022-10-22T23:24:38.174Z,39.60
2022-10-22T23:29:40.136Z,32.80
2022-10-22T23:34:42.370Z,33.40
2022-10-22T23:39:45.246Z,32.90
2022-10-22T23:50:23.621Z,31.70
2022-10-22T23:55:25.694Z,28.90
